createdAt,value
2018-01-02T00:02:02.330Z,4.50
2018-01-02T00:08:05.992Z,4.54
2018-01-02T00:14:09.595Z,4.56
2018-01-02T00:20:13.056Z,4.59
2018-01-02T00:26:16.574Z,4.56
2018-01-02T00:32:20.184Z,4.59
2018-01-02T00:38:23.928Z,4.56
2018-01-02T00:44:27.411Z,4.63
2018-01-02T00:50:31.632Z,4.63
2018-01-02T00:56:35.161Z,4.58
2018-01-02T01:02:39.460Z,4.59
2018-01-02T01:08:42.930Z,4.57
2018-01-02T01:14:46.419Z,4.51
2018-01-02T01:20:50.032Z,4.43
2018-01-02T01:26:54.307Z,4.35
2018-01-02T01:32:58.038Z,4.28
2018-01-02T01:39:02.254Z,4.24
2018-01-02T01:45:05.733Z,4.18
2018-01-02T01:51:09.193Z,4.08
2018-01-02T01:57:12.725Z,3.98
2018-01-02T02:03:16.258Z,3.89
2018-01-02T02:09:19.763Z,3.73
2018-01-02T02:15:23.685Z,3.61
2018-01-02T02:21:27.241Z,3.58
2018-01-02T02:27:30.721Z,3.56
2018-01-02T02:33:34.182Z,3.57
2018-01-02T02:39:37.660Z,3.54
2018-01-02T02:45:41.401Z,3.51
2018-01-02T02:51:45.735Z,3.48
2018-01-02T02:57:49.396Z,3.47
2018-01-02T03:03:53.847Z,3.46
2018-01-02T03:09:57.328Z,3.44
2018-01-02T03:16:00.841Z,3.48
2018-01-02T03:22:04.366Z,3.54
2018-01-02T03:28:07.857Z,3.54
2018-01-02T03:34:11.322Z,3.61
2018-01-02T03:40:14.799Z,3.62
2018-01-02T03:46:18.385Z,3.66
2018-01-02T03:52:23.556Z,3.71
2018-01-02T03:58:27.076Z,3.74
2018-01-02T04:04:30.611Z,3.78
2018-01-02T04:10:34.091Z,3.76
2018-01-02T04:16:37.702Z,3.77
2018-01-02T04:22:41.292Z,3.74
2018-01-02T04:28:44.821Z,3.75
2018-01-02T04:34:49.059Z,3.77
2018-01-02T04:40:52.994Z,3.80
2018-01-02T04:46:56.622Z,3.91
2018-01-02T04:53:00.182Z,3.91
2018-01-02T04:59:03.732Z,3.91
2018-01-02T05:05:07.198Z,3.89
2018-01-02T05:11:10.691Z,3.84
2018-01-02T05:17:15.275Z,3.76
2018-01-02T05:23:18.911Z,3.71
2018-01-02T05:29:22.905Z,3.69
2018-01-02T05:35:26.940Z,3.71
2018-01-02T05:41:30.455Z,3.73
2018-01-02T05:47:34.103Z,3.79
2018-01-02T05:53:38.375Z,3.80
2018-01-02T05:59:43.455Z,3.87
2018-01-02T06:05:47.194Z,3.91
2018-01-02T06:11:51.300Z,3.93
2018-01-02T06:17:55.529Z,3.96
2018-01-02T06:23:59.942Z,3.95
2018-01-02T06:30:04.203Z,3.96
2018-01-02T06:36:07.733Z,4.02
2018-01-02T06:42:11.192Z,4.05
2018-01-02T06:48:14.710Z,4.14
2018-01-02T06:54:18.168Z,4.22
2018-01-02T07:00:22.199Z,4.35
2018-01-02T07:06:26.632Z,4.43
2018-01-02T07:12:30.166Z,4.57
2018-01-02T07:18:33.650Z,4.59
2018-01-02T07:24:37.131Z,4.61
2018-01-02T07:30:41.374Z,4.60
2018-01-02T07:36:44.841Z,4.61
2018-01-02T07:42:48.297Z,4.65
2018-01-02T07:48:52.037Z,4.70
2018-01-02T07:54:55.732Z,4.71
2018-01-02T08:00:59.971Z,4.74
2018-01-02T08:07:03.619Z,4.78
2018-01-02T08:13:07.120Z,4.84
2018-01-02T08:19:11.403Z,4.87
2018-01-02T08:25:14.881Z,4.90
2018-01-02T08:31:18.340Z,4.92
2018-01-02T08:37:21.847Z,4.96
2018-01-02T08:43:26.394Z,5.01
2018-01-02T08:49:30.059Z,5.00
2018-01-02T08:55:34.371Z,4.96
2018-01-02T09:01:37.842Z,5.03
2018-01-02T09:07:42.137Z,5.09
2018-01-02T09:13:51.647Z,5.11
2018-01-02T09:19:55.486Z,5.14
2018-01-02T09:25:58.997Z,5.11
2018-01-02T09:32:03.440Z,5.18
2018-01-02T09:38:06.957Z,5.21
2018-01-02T09:44:10.449Z,5.30
2018-01-02T09:50:14.004Z,5.39
2018-01-02T09:56:17.546Z,5.44
2018-01-02T10:02:21.150Z,5.40
2018-01-02T10:08:24.737Z,5.43
2018-01-02T10:14:28.334Z,5.42
2018-01-02T10:20:31.861Z,5.45
2018-01-02T10:26:35.443Z,5.56
2018-01-02T10:32:38.917Z,5.66
2018-01-02T10:38:42.447Z,5.89
2018-01-02T10:44:46.177Z,6.01
2018-01-02T10:50:49.685Z,5.89
2018-01-02T10:56:53.990Z,5.90
2018-01-02T11:02:57.488Z,5.84
2018-01-02T11:09:01.052Z,5.84
2018-01-02T11:15:06.811Z,5.88
2018-01-02T11:21:10.632Z,6.04
2018-01-02T11:27:14.166Z,6.15
2018-01-02T11:33:17.679Z,6.14
2018-01-02T11:39:21.697Z,5.96
2018-01-02T11:45:26.296Z,5.95
2018-01-02T11:51:30.733Z,5.90
2018-01-02T11:57:34.357Z,5.89
2018-01-02T12:03:37.898Z,5.80
2018-01-02T12:09:42.191Z,5.85
2018-01-02T12:15:45.674Z,5.79
2018-01-02T12:21:49.187Z,5.64
2018-01-02T12:27:53.291Z,5.58
2018-01-02T12:33:57.700Z,5.58
2018-01-02T12:40:01.218Z,5.77
2018-01-02T12:46:04.738Z,5.87
2018-01-02T12:52:08.232Z,5.82
2018-01-02T12:58:11.754Z,5.79
2018-01-02T13:04:15.402Z,5.77
2018-01-02T13:10:18.924Z,5.84
2018-01-02T13:16:22.689Z,5.96
2018-01-02T13:22:27.050Z,5.97
2018-01-02T13:28:30.560Z,5.93
2018-01-02T13:34:34.035Z,5.84
2018-01-02T13:40:37.517Z,5.81
2018-01-02T13:46:41.143Z,5.76
2018-01-02T13:52:44.636Z,5.67
2018-01-02T13:58:48.102Z,5.64
2018-01-02T14:04:52.743Z,5.56
2018-01-02T14:10:56.693Z,5.39
2018-01-02T14:17:00.190Z,5.24
2018-01-02T14:23:03.662Z,5.16
2018-01-02T14:29:07.272Z,5.20
2018-01-02T14:35:10.816Z,5.23
2018-01-02T14:41:14.268Z,5.20
2018-01-02T14:47:17.773Z,5.26
2018-01-02T14:53:21.751Z,5.33
2018-01-02T14:59:25.491Z,5.28
2018-01-02T15:05:29.726Z,5.31
2018-01-02T15:11:33.202Z,5.37
2018-01-02T15:17:37.009Z,5.31
2018-01-02T15:23:40.551Z,5.37
2018-01-02T15:29:44.051Z,5.25
2018-01-02T15:35:47.548Z,5.19
2018-01-02T15:41:51.509Z,5.08
2018-01-02T15:47:55.853Z,4.92
2018-01-02T15:53:59.386Z,4.91
2018-01-02T16:00:02.932Z,4.86
2018-01-02T16:06:06.471Z,4.87
2018-01-02T16:12:10.047Z,4.89
2018-01-02T16:18:13.482Z,4.93
2018-01-02T16:24:16.961Z,4.96
2018-01-02T16:30:21.765Z,4.93
2018-01-02T16:36:25.508Z,5.02
2018-01-02T16:42:29.254Z,5.01
2018-01-02T16:48:33.028Z,4.97
2018-01-02T16:54:36.499Z,4.97
2018-01-02T17:00:40.052Z,4.91
2018-01-02T17:06:43.553Z,4.85
2018-01-02T17:12:47.025Z,4.81
2018-01-02T17:18:50.694Z,4.79
2018-01-02T17:24:54.307Z,4.74
2018-01-02T17:30:58.660Z,4.56
2018-01-02T17:37:02.221Z,4.39
2018-01-02T17:43:05.649Z,4.34
2018-01-02T17:49:09.138Z,4.38
2018-01-02T17:55:12.612Z,4.34
2018-01-02T18:01:16.050Z,4.34
2018-01-02T18:07:20.493Z,4.43
2018-01-02T18:13:24.014Z,4.38
2018-01-02T18:19:28.305Z,4.45
2018-01-02T18:25:32.103Z,4.53
2018-01-02T18:31:35.623Z,4.54
2018-01-02T18:37:39.262Z,4.61
2018-01-02T18:43:42.722Z,4.66
2018-01-02T18:49:46.178Z,4.83
2018-01-02T18:55:49.597Z,4.94
2018-01-02T19:01:54.670Z,4.73
2018-01-02T19:07:58.922Z,4.33
2018-01-02T19:14:02.454Z,4.12
2018-01-02T19:20:05.893Z,3.98
2018-01-02T19:26:09.376Z,3.96
2018-01-02T19:32:12.865Z,3.89
2018-01-02T19:38:16.374Z,3.92
2018-01-02T19:44:20.865Z,3.93
2018-01-02T19:50:24.578Z,3.89
2018-01-02T19:56:28.100Z,3.82
2018-01-02T20:02:32.546Z,3.90
2018-01-02T20:08:36.011Z,3.92
2018-01-02T20:14:39.593Z,3.87
2018-01-02T20:20:43.950Z,3.86
2018-01-02T20:26:47.382Z,3.90
2018-01-02T20:32:50.944Z,3.98
2018-01-02T20:38:54.713Z,4.05
2018-01-02T20:44:58.242Z,4.10
2018-01-02T20:51:03.388Z,4.10
2018-01-02T20:57:06.928Z,4.14
2018-01-02T21:03:11.137Z,4.25
2018-01-02T21:09:14.572Z,4.23
2018-01-02T21:15:18.768Z,4.22
2018-01-02T21:21:22.295Z,4.24
2018-01-02T21:27:26.759Z,4.31
2018-01-02T21:33:30.944Z,4.44
2018-01-02T21:39:34.520Z,4.41
2018-01-02T21:45:37.970Z,4.43
2018-01-02T21:51:41.479Z,4.50
2018-01-02T21:57:45.074Z,4.46
2018-01-02T22:03:48.655Z,4.50
2018-01-02T22:09:52.304Z,4.62
2018-01-02T22:15:56.040Z,4.61
2018-01-02T22:21:59.560Z,4.81
2018-01-02T22:28:03.088Z,4.71
2018-01-02T22:34:06.512Z,4.69
2018-01-02T22:40:10.207Z,4.67
2018-01-02T22:46:13.974Z,4.84
2018-01-02T22:52:17.454Z,5.02
2018-01-02T22:58:21.697Z,5.03
2018-01-02T23:04:25.260Z,5.07
2018-01-02T23:10:28.731Z,5.15
2018-01-02T23:16:32.906Z,4.98
2018-01-02T23:22:37.208Z,5.04
2018-01-02T23:28:40.663Z,5.00
2018-01-02T23:34:44.080Z,5.02
2018-01-02T23:40:48.278Z,4.88
2018-01-02T23:46:53.502Z,4.90
2018-01-02T23:52:56.985Z,4.86
2018-01-02T23:59:00.411Z,4.87
